Fort Pierce, FL

11:34 EST le 03 Mars 2015 (GMT -0500)
Kirchman South | Change Station
CLOSE
Current Station
Stations météorologiques personnelles
Location: Ft. Pierce, FL
Altitude: 18 ft
Stations météo à proximité

Alt. 18 ft 27.46 °N, 80.49 °W | Updated 3 minutes ago

Partiellement nuageux
Partiellement nuageux
79.7 ° F
Paraît 83 ° F
N
7.0
Vent Variable Vent de Est
Gusts 14.0 mph

Aujourd'hui
Haut(e) -- | Bas -- ° F
--% Risque de précip.
Hier
Haut(e) -- | Bas -- ° F
Precip. -- pouce
6:44 AM 6:23 PM
Lune gibbeuse croissante, 96% visible
Pression 30.23 pouce
Visibilité 10.0 Miles terrestres
Nuages Nuageux 2400 ft
Nuageux 2800 ft
indice de chaleur 83 ° F
Point de rosée 71 ° F
Humidité 74%
Précipitations 0.00 pouce
Profondeur de la couche neigeuse Non disponible.
UV 3.3 sur 12
Pollen 10.60 sur 12
Qualité de l'air Non disponible.
Flu Activity Non disponible.
SPECI KFPR 031626Z 12013KT 10SM BKN024 BKN028 26/19 A3023 RMK AO2 T02560194

More Conditions Fewer Conditions

Pression 30.23 pouce
Visibilité 10.0 Miles terrestres
Nuages Nuageux 2400 ft
Nuageux 2800 ft
indice de chaleur 83 ° F
Point de rosée 71 ° F
Humidité 74%
Précipitations 0.00 pouce
Profondeur de la couche neigeuse Non disponible.
UV 3.3 sur 12
Pollen 10.60 sur 12
Qualité de l'air Non disponible.
Flu Activity Non disponible.
SPECI KFPR 031626Z 12013KT 10SM BKN024 BKN028 26/19 A3023 RMK AO2 T02560194

More Conditions Fewer Conditions

Nowcast | as of 11:04 am EST on March 3, 2015

It will be partly cloudy and warm this afternoon...with high temperatures reaching the lower 80s inland and upper 70s to near 80 closer to the East Coast. A few coastal showers will move west over the Atlantic...but gradually weaken as they approach the coast. A few light showers or sprinkles may move onshore the Treasure Coast before dissipating...especially between Fort Pierce and Stuart. Additional details...including graphics are available online at: http://www.Srh.NOAA.Gov/mlb/blog.Php

×

10-Day Weather Forecast

Almanac

Astronomie

Mar. 03, 2015 Lever Coucher
Temps réel
Crépuscule civil
Crépuscule nautique
Crépuscule astronomique
Lune
Durée de lumière visible
Longueur du jour
Tomorrow will be .
, % of the Moon is Illuminated

Extrêmes aujourd'hui

State Highs State Lows

Community

WunderPhotos

Upload Photos

1,802,164 Photos téléchargées !

WunderBlogs® & News

Nearby

Qualité de l'air

  Qualité de l'air Indice de la qualité de l'air Polluant
Not available.

Épaisseur de neige

Station Depth Altitude

Activité sismique

Ville Distance Mag. Time & Date
Minimum magnitude displayed is 2.5.

Températures des eaux côtières

Lieu Température

Stations météo à proximité